Terminal Aerodrome Forecast
Issued by NWS

Home | Current Version | Previous Version | Text Only | Print | Product List | Glossary On
Versions: 1 2 3 4 5 6 7 8 9 10 11 12 13 14 15 16 17 18 19 20
000
FTUS46 KHNX 071735 CCA
TAFFAT
TAF COR
KFAT 071735Z 0718/0818 VRB03KT 1/4SM FG VV002
     FM071900 VRB03KT 1SM HZ BR BKN002
     FM072000 VRB03KT 2SM HZ BKN010
     FM080000 VRB03KT 5SM HZ FEW060 BKN100 PROB30 0806/0812 -RA
      BKN060
     FM081200 10007KT P6SM BKN050 OVC070 PROB30 0812/0818 -RA BKN030
      OVC050=

USA.gov is the U.S. government's official web portal to all federal, state and local government web resources and services.